createdAt,value
2022-10-20T00:01:07.844Z,17.48
2022-10-20T00:03:36.106Z,21.15
2022-10-20T00:06:12.079Z,23.73
2022-10-20T00:08:42.268Z,27.00
2022-10-20T00:11:12.463Z,22.63
2022-10-20T00:13:41.699Z,27.58
2022-10-20T00:16:10.149Z,21.33
2022-10-20T00:18:38.338Z,25.73
2022-10-20T00:21:08.112Z,24.20
2022-10-20T00:23:36.701Z,27.85
2022-10-20T00:26:07.921Z,27.17
2022-10-20T00:28:36.484Z,31.35
2022-10-20T00:31:05.037Z,30.67
2022-10-20T00:33:33.949Z,25.27
2022-10-20T00:36:02.232Z,27.58
2022-10-20T00:38:30.231Z,30.17
2022-10-20T00:41:00.117Z,31.20
2022-10-20T00:43:47.495Z,33.95
2022-10-20T00:46:18.379Z,25.52
2022-10-20T00:48:49.945Z,28.95
2022-10-20T00:51:21.543Z,28.45
2022-10-20T00:53:53.183Z,24.85
2022-10-20T00:56:22.279Z,28.90
2022-10-20T00:58:52.088Z,31.65
2022-10-20T01:01:20.452Z,22.92
2022-10-20T01:03:51.037Z,27.50
2022-10-20T01:06:21.325Z,26.80
2022-10-20T01:08:49.892Z,30.70
2022-10-20T01:11:24.525Z,38.75
2022-10-20T01:14:16.010Z,29.20
2022-10-20T01:16:52.006Z,25.05
2022-10-20T01:19:51.837Z,31.52
2022-10-20T01:22:37.595Z,24.70
2022-10-20T01:25:19.150Z,31.40
2022-10-20T01:27:53.908Z,30.15
2022-10-20T01:30:24.104Z,29.45
2022-10-20T01:33:01.778Z,29.02
2022-10-20T01:35:41.145Z,32.15
2022-10-20T01:38:17.324Z,30.85
2022-10-20T01:40:50.150Z,34.13
2022-10-20T01:43:23.011Z,25.52
2022-10-20T01:45:53.147Z,33.45
2022-10-20T01:48:25.591Z,27.33
2022-10-20T01:50:53.655Z,25.75
2022-10-20T01:53:21.824Z,27.15
2022-10-20T01:55:52.958Z,25.20
2022-10-20T01:58:47.580Z,29.73
2022-10-20T02:01:23.585Z,26.33
2022-10-20T02:03:55.296Z,24.58
2022-10-20T02:06:41.491Z,19.55
2022-10-20T02:09:16.316Z,24.23
2022-10-20T02:11:49.533Z,23.50
2022-10-20T02:14:21.376Z,33.95
2022-10-20T02:16:52.133Z,29.45
2022-10-20T02:19:24.932Z,23.73
2022-10-20T02:21:53.932Z,30.08
2022-10-20T02:24:25.012Z,26.30
2022-10-20T02:26:55.263Z,28.52
2022-10-20T02:29:29.323Z,27.38
2022-10-20T02:31:57.830Z,26.33
2022-10-20T02:34:27.097Z,24.50
2022-10-20T02:36:58.637Z,26.25
2022-10-20T02:39:26.528Z,24.50
2022-10-20T02:41:54.675Z,31.08
2022-10-20T02:44:23.965Z,29.67
2022-10-20T02:46:51.844Z,28.80
2022-10-20T02:49:20.495Z,28.85
2022-10-20T02:51:48.514Z,26.30
2022-10-20T02:54:16.384Z,33.03
2022-10-20T02:56:44.298Z,25.33
2022-10-20T02:59:14.854Z,28.52
2022-10-20T03:01:44.477Z,22.73
2022-10-20T03:04:13.234Z,33.65
2022-10-20T03:06:41.883Z,23.83
2022-10-20T03:09:09.813Z,25.60
2022-10-20T03:11:37.649Z,22.88
2022-10-20T03:14:05.555Z,31.55
2022-10-20T03:16:33.448Z,30.20
2022-10-20T03:19:05.275Z,26.23
2022-10-20T03:21:35.141Z,25.08
2022-10-20T03:24:02.979Z,23.10
2022-10-20T03:26:30.938Z,25.63
2022-10-20T03:28:58.786Z,31.55
2022-10-20T03:31:26.745Z,23.08
2022-10-20T03:33:54.623Z,26.52
2022-10-20T03:36:23.960Z,26.52
2022-10-20T03:38:51.893Z,25.30
2022-10-20T03:41:19.724Z,31.27
2022-10-20T03:43:47.585Z,24.33
2022-10-20T03:46:15.614Z,23.98
2022-10-20T03:48:43.463Z,24.10
2022-10-20T03:51:14.507Z,28.65
2022-10-20T03:53:43.752Z,21.38
2022-10-20T03:56:16.774Z,23.65
2022-10-20T03:58:44.743Z,24.13
2022-10-20T04:01:16.291Z,25.38
2022-10-20T04:03:45.006Z,27.10
2022-10-20T04:06:13.855Z,26.63
2022-10-20T04:08:43.411Z,24.52
2022-10-20T04:11:11.435Z,26.48
2022-10-20T04:13:39.308Z,30.83
2022-10-20T04:16:07.853Z,23.08
2022-10-20T04:18:35.786Z,25.92
2022-10-20T04:21:03.710Z,26.55
2022-10-20T04:23:31.600Z,24.83
2022-10-20T04:26:00.807Z,23.27
2022-10-20T04:28:28.671Z,23.95
2022-10-20T04:30:57.266Z,27.60
2022-10-20T04:33:25.214Z,28.27
2022-10-20T04:35:58.413Z,27.83
2022-10-20T04:38:26.355Z,23.20
2022-10-20T04:41:00.404Z,24.63
2022-10-20T04:43:32.795Z,26.13
2022-10-20T04:46:03.956Z,27.70
2022-10-20T04:48:35.083Z,30.27
2022-10-20T04:51:05.009Z,28.38
2022-10-20T04:53:33.003Z,34.75
2022-10-20T04:56:01.167Z,29.85
2022-10-20T04:58:29.443Z,25.00
2022-10-20T05:01:03.968Z,25.88
2022-10-20T05:03:32.042Z,22.23
2022-10-20T05:06:12.563Z,26.52
2022-10-20T05:08:41.968Z,23.73
2022-10-20T05:11:10.911Z,24.55
2022-10-20T05:13:38.810Z,21.83
2022-10-20T05:16:09.133Z,29.70
2022-10-20T05:18:37.106Z,27.75
2022-10-20T05:21:09.912Z,25.73
2022-10-20T05:23:39.137Z,25.08
2022-10-20T05:26:08.550Z,24.95
2022-10-20T05:28:36.575Z,20.73
2022-10-20T05:31:05.502Z,32.97
2022-10-20T05:33:35.505Z,27.83
2022-10-20T05:36:08.538Z,22.67
2022-10-20T05:38:36.998Z,25.08
2022-10-20T05:41:09.707Z,23.00
2022-10-20T05:43:37.792Z,25.38
2022-10-20T05:46:06.140Z,22.67
2022-10-20T05:48:39.469Z,19.75
2022-10-20T05:51:14.710Z,27.25
2022-10-20T05:53:44.262Z,22.85
2022-10-20T05:56:14.257Z,18.65
2022-10-20T05:58:42.540Z,20.42
2022-10-20T06:01:16.774Z,21.52
2022-10-20T06:03:48.890Z,25.38
2022-10-20T06:06:17.313Z,19.02
2022-10-20T06:08:45.376Z,21.23
2022-10-20T06:11:15.515Z,23.40
2022-10-20T06:13:46.018Z,20.88
2022-10-20T06:16:17.829Z,21.25
2022-10-20T06:18:48.010Z,18.88
2022-10-20T06:21:17.957Z,22.48
2022-10-20T06:23:46.112Z,23.02
2022-10-20T06:26:17.461Z,23.85
2022-10-20T06:28:46.702Z,23.40
2022-10-20T06:31:16.092Z,18.67
2022-10-20T06:33:44.705Z,23.35
2022-10-20T06:36:14.264Z,19.85
2022-10-20T06:38:42.722Z,20.38
2022-10-20T06:41:14.307Z,17.85
2022-10-20T06:43:42.502Z,23.45
2022-10-20T06:46:13.518Z,19.90
2022-10-20T06:48:41.673Z,19.45
2022-10-20T06:51:13.960Z,24.30
2022-10-20T06:53:45.814Z,19.48
2022-10-20T06:56:17.219Z,26.73
2022-10-20T06:58:47.440Z,21.48
2022-10-20T07:01:17.147Z,22.95
2022-10-20T07:03:46.333Z,26.85
2022-10-20T07:06:17.130Z,22.90
2022-10-20T07:08:45.305Z,19.10
2022-10-20T07:11:15.399Z,23.73
2022-10-20T07:13:44.074Z,22.35
2022-10-20T07:16:14.537Z,21.70
2022-10-20T07:21:14.058Z,19.88
2022-10-20T07:23:43.888Z,20.80
2022-10-20T07:26:14.249Z,21.30
2022-10-20T07:28:44.375Z,20.58
2022-10-20T07:31:14.285Z,20.83
2022-10-20T07:33:42.536Z,24.90
2022-10-20T07:36:15.326Z,21.13
2022-10-20T07:38:45.206Z,24.33
2022-10-20T07:41:13.532Z,23.80
2022-10-20T07:43:42.268Z,24.13
2022-10-20T07:46:11.148Z,23.55
2022-10-20T07:48:39.284Z,21.33
2022-10-20T07:51:28.471Z,22.58
2022-10-20T07:54:00.753Z,19.40
2022-10-20T07:56:30.477Z,22.70
2022-10-20T07:58:58.765Z,20.73
2022-10-20T08:01:27.022Z,21.08
2022-10-20T08:03:54.966Z,20.17
2022-10-20T08:06:22.919Z,18.90
2022-10-20T08:08:50.789Z,23.25
2022-10-20T08:11:20.791Z,19.77
2022-10-20T08:13:48.688Z,23.25
2022-10-20T08:16:23.198Z,20.23
2022-10-20T08:21:35.781Z,25.63
2022-10-20T08:24:03.917Z,22.42
2022-10-20T08:26:33.234Z,26.10
2022-10-20T08:29:02.719Z,24.40
2022-10-20T08:31:30.694Z,22.15
2022-10-20T08:33:59.836Z,24.83
2022-10-20T08:36:28.216Z,22.17
2022-10-20T08:38:56.484Z,23.88
2022-10-20T08:41:34.532Z,19.35
2022-10-20T08:44:06.451Z,18.63
2022-10-20T08:46:36.767Z,21.05
2022-10-20T08:49:07.399Z,21.98
2022-10-20T08:51:38.478Z,22.60
2022-10-20T08:54:12.710Z,18.60
2022-10-20T08:56:40.678Z,19.05
2022-10-20T08:59:24.954Z,23.70
2022-10-20T09:01:53.423Z,21.33
2022-10-20T09:04:23.897Z,20.98
2022-10-20T09:06:56.083Z,15.95
2022-10-20T09:09:25.433Z,20.25
2022-10-20T09:12:05.124Z,17.40
2022-10-20T09:14:37.344Z,17.88
2022-10-20T09:17:09.121Z,19.65
2022-10-20T09:19:39.687Z,17.48
2022-10-20T09:22:08.328Z,19.38
2022-10-20T09:24:38.078Z,18.60
2022-10-20T09:27:22.311Z,17.05
2022-10-20T09:29:51.862Z,19.60
2022-10-20T09:35:20.734Z,23.23
2022-10-20T09:37:55.063Z,20.48
2022-10-20T09:40:24.324Z,20.42
2022-10-20T09:42:55.872Z,17.98
2022-10-20T09:45:28.806Z,20.08
2022-10-20T09:48:03.028Z,17.55
2022-10-20T09:50:34.438Z,18.30
2022-10-20T09:53:07.162Z,21.77
2022-10-20T09:55:37.759Z,18.45
2022-10-20T09:58:07.054Z,18.52
2022-10-20T10:00:39.101Z,18.35
2022-10-20T10:03:19.986Z,19.15
2022-10-20T10:05:50.008Z,21.02
2022-10-20T10:08:18.609Z,18.02
2022-10-20T10:10:57.994Z,20.42
2022-10-20T10:13:28.618Z,17.60
2022-10-20T10:16:07.447Z,15.88
2022-10-20T10:18:37.487Z,15.95
2022-10-20T10:21:08.064Z,13.80
2022-10-20T10:23:41.144Z,18.83
2022-10-20T10:26:50.821Z,17.23
2022-10-20T10:29:24.618Z,19.23
2022-10-20T10:31:59.499Z,18.85
2022-10-20T10:34:49.169Z,18.55
2022-10-20T10:39:52.480Z,17.65
2022-10-20T10:42:51.051Z,16.60
2022-10-20T10:45:25.272Z,16.90
2022-10-20T10:48:22.580Z,14.60
2022-10-20T10:50:55.343Z,16.90
2022-10-20T10:53:39.960Z,17.70
2022-10-20T10:56:17.411Z,15.18
2022-10-20T10:58:48.404Z,17.63
2022-10-20T11:01:54.473Z,20.02
2022-10-20T11:04:58.331Z,21.00
2022-10-20T11:07:33.578Z,18.40
2022-10-20T11:10:10.777Z,22.15
2022-10-20T11:12:51.073Z,18.52
2022-10-20T11:15:33.533Z,22.92
2022-10-20T11:18:11.998Z,14.30
2022-10-20T11:20:51.506Z,14.45
2022-10-20T11:23:43.562Z,19.80
2022-10-20T11:26:18.717Z,18.90
2022-10-20T11:28:49.346Z,14.25
2022-10-20T11:31:24.009Z,14.95
2022-10-20T11:33:57.780Z,17.40
2022-10-20T11:36:35.028Z,19.13
2022-10-20T11:39:04.238Z,19.52
2022-10-20T11:41:39.603Z,15.10
2022-10-20T11:44:12.716Z,17.17
2022-10-20T11:46:46.659Z,14.93
2022-10-20T11:49:14.600Z,14.30
2022-10-20T11:52:11.884Z,15.18
2022-10-20T11:54:52.595Z,13.25
2022-10-20T11:57:34.358Z,19.02
2022-10-20T12:00:16.414Z,15.90
2022-10-20T12:03:21.704Z,15.82
2022-10-20T12:06:09.097Z,17.27
2022-10-20T12:08:52.760Z,16.15
2022-10-20T12:11:29.416Z,14.85
2022-10-20T12:14:04.603Z,15.88
2022-10-20T12:17:12.685Z,18.42
2022-10-20T12:19:40.759Z,18.42
2022-10-20T12:22:43.850Z,15.30
2022-10-20T12:25:40.412Z,14.15
2022-10-20T12:28:45.772Z,14.63
2022-10-20T12:31:13.670Z,16.15
2022-10-20T12:34:00.549Z,11.50
2022-10-20T12:36:35.234Z,15.40
2022-10-20T12:39:19.478Z,13.45
2022-10-20T12:42:01.005Z,16.67
2022-10-20T12:44:32.461Z,18.70
2022-10-20T12:47:06.280Z,18.73
2022-10-20T12:49:37.464Z,11.95
2022-10-20T12:52:07.392Z,14.40
2022-10-20T12:54:39.103Z,13.45
2022-10-20T12:57:28.419Z,15.23
2022-10-20T12:59:56.274Z,12.90
2022-10-20T13:02:33.156Z,13.00
2022-10-20T13:05:03.533Z,14.77
2022-10-20T13:08:08.952Z,15.50
2022-10-20T13:10:38.629Z,14.48
2022-10-20T13:13:37.687Z,12.73
2022-10-20T13:16:06.806Z,21.45
2022-10-20T13:18:40.658Z,12.95
2022-10-20T13:21:27.066Z,12.63
2022-10-20T13:24:01.834Z,13.10
2022-10-20T13:26:32.170Z,20.35
2022-10-20T13:29:02.898Z,15.90
2022-10-20T13:31:35.633Z,13.02
2022-10-20T13:34:12.396Z,14.85
2022-10-20T13:36:53.667Z,17.20
2022-10-20T13:39:29.265Z,18.15
2022-10-20T13:42:05.364Z,15.40
2022-10-20T13:44:45.930Z,15.32
2022-10-20T13:47:35.415Z,17.67
2022-10-20T13:50:08.555Z,22.65
2022-10-20T13:52:42.691Z,20.15
2022-10-20T13:55:19.241Z,12.93
2022-10-20T13:57:55.430Z,14.75
2022-10-20T14:00:27.839Z,12.98
2022-10-20T14:03:00.975Z,16.15
2022-10-20T14:05:31.511Z,17.85
2022-10-20T14:08:06.164Z,13.45
2022-10-20T14:10:44.207Z,13.63
2022-10-20T14:13:16.950Z,15.13
2022-10-20T14:15:50.327Z,13.68
2022-10-20T14:18:25.071Z,11.85
2022-10-20T14:20:59.148Z,18.73
2022-10-20T14:23:29.408Z,17.25
2022-10-20T14:25:58.037Z,14.23
2022-10-20T14:28:29.408Z,16.05
2022-10-20T14:30:58.846Z,14.15
2022-10-20T14:33:27.405Z,19.00
2022-10-20T14:35:57.949Z,12.68
2022-10-20T14:38:30.537Z,14.75
2022-10-20T14:41:00.288Z,18.90
2022-10-20T14:43:39.133Z,14.10
2022-10-20T14:46:10.340Z,15.65
2022-10-20T14:48:40.417Z,18.38
2022-10-20T14:51:31.156Z,16.25
2022-10-20T14:54:36.958Z,19.38
2022-10-20T14:57:37.898Z,23.50
2022-10-20T15:00:34.806Z,18.38
2022-10-20T15:03:07.967Z,25.98
2022-10-20T15:05:40.710Z,18.98
2022-10-20T15:08:12.056Z,16.77
2022-10-20T15:10:40.408Z,22.00
2022-10-20T15:13:25.007Z,23.30
2022-10-20T15:15:56.153Z,23.30
2022-10-20T15:18:25.793Z,23.95
2022-10-20T15:20:54.240Z,20.23
2022-10-20T15:23:23.616Z,19.08
2022-10-20T15:25:55.591Z,20.17
2022-10-20T15:28:37.957Z,22.08
2022-10-20T15:31:08.266Z,18.35
2022-10-20T15:33:37.649Z,18.58
2022-10-20T15:36:13.364Z,24.65
2022-10-20T15:38:41.223Z,31.90
2022-10-20T15:41:12.850Z,22.90
2022-10-20T15:43:40.760Z,23.13
2022-10-20T15:46:10.846Z,22.10
2022-10-20T15:48:40.142Z,20.20
2022-10-20T15:51:14.537Z,22.00
2022-10-20T15:53:44.306Z,22.63
2022-10-20T15:56:12.196Z,30.38
2022-10-20T15:58:40.151Z,23.17
2022-10-20T16:01:08.201Z,25.55
2022-10-20T16:03:40.700Z,23.73
2022-10-20T16:06:10.035Z,22.20
2022-10-20T16:08:37.978Z,23.02
2022-10-20T16:11:07.893Z,21.48
2022-10-20T16:13:38.367Z,22.98
2022-10-20T16:16:08.478Z,24.88
2022-10-20T16:18:36.706Z,26.10
2022-10-20T16:21:05.245Z,26.60
2022-10-20T16:23:40.709Z,25.02
2022-10-20T16:26:14.284Z,25.15
2022-10-20T16:28:42.237Z,23.67
2022-10-20T16:33:41.517Z,23.00
2022-10-20T16:36:11.050Z,23.23
2022-10-20T16:38:40.774Z,25.23
2022-10-20T16:41:10.739Z,25.67
2022-10-20T16:43:39.528Z,29.42
2022-10-20T16:46:08.515Z,23.30
2022-10-20T16:48:39.024Z,28.70
2022-10-20T16:51:08.930Z,31.75
2022-10-20T16:53:37.449Z,32.47
2022-10-20T16:56:07.971Z,26.65
2022-10-20T16:58:36.967Z,27.65
2022-10-20T17:01:08.450Z,21.33
2022-10-20T17:03:36.991Z,24.92
2022-10-20T17:06:07.317Z,24.48
2022-10-20T17:08:36.954Z,24.85
2022-10-20T17:11:08.488Z,23.42
2022-10-20T17:13:37.702Z,27.13
2022-10-20T17:16:07.723Z,27.40
2022-10-20T17:18:36.375Z,26.83
2022-10-20T17:21:04.630Z,23.00
2022-10-20T17:23:37.398Z,28.02
2022-10-20T17:26:22.235Z,26.65
2022-10-20T17:28:52.138Z,22.92
2022-10-20T17:31:20.120Z,26.23
2022-10-20T17:33:48.294Z,23.50
2022-10-20T17:36:17.190Z,27.73
2022-10-20T17:38:45.047Z,23.48
2022-10-20T17:41:16.770Z,26.35
2022-10-20T17:43:44.601Z,26.08
2022-10-20T17:46:14.757Z,24.48
2022-10-20T17:48:42.999Z,24.85
2022-10-20T17:51:13.911Z,24.35
2022-10-20T17:53:45.421Z,25.05
2022-10-20T17:56:16.428Z,31.42
2022-10-20T17:58:46.904Z,22.20
2022-10-20T18:01:17.916Z,22.20
2022-10-20T18:03:47.249Z,20.70
2022-10-20T18:06:17.184Z,22.25
2022-10-20T18:08:46.958Z,24.65
2022-10-20T18:11:19.357Z,24.17
2022-10-20T18:13:48.633Z,26.85
2022-10-20T18:16:18.615Z,33.47
2022-10-20T18:18:47.168Z,27.35
2022-10-20T18:21:18.275Z,24.20
2022-10-20T18:23:48.193Z,26.05
2022-10-20T18:26:19.896Z,27.25
2022-10-20T18:28:48.775Z,30.30
2022-10-20T18:31:18.725Z,30.55
2022-10-20T18:33:47.124Z,29.42
2022-10-20T18:36:16.807Z,29.02
2022-10-20T18:38:45.786Z,33.03
2022-10-20T18:41:17.718Z,33.67
2022-10-20T18:43:48.284Z,32.97
2022-10-20T18:46:16.498Z,32.47
2022-10-20T18:48:45.033Z,32.45
2022-10-20T18:51:14.876Z,33.67
2022-10-20T18:53:44.245Z,37.33
2022-10-20T18:56:15.598Z,30.45
2022-10-20T18:58:48.137Z,33.88
2022-10-20T19:01:19.340Z,34.38
2022-10-20T19:03:48.788Z,35.88
2022-10-20T19:06:19.362Z,33.60
2022-10-20T19:08:52.807Z,40.25
2022-10-20T19:11:21.973Z,35.42
2022-10-20T19:13:49.911Z,37.80
2022-10-20T19:16:23.998Z,34.35
2022-10-20T19:18:54.176Z,37.33
2022-10-20T19:21:23.285Z,32.55
2022-10-20T19:23:54.336Z,40.38
2022-10-20T19:26:24.170Z,36.72
2022-10-20T19:28:58.570Z,34.00
2022-10-20T19:31:31.814Z,40.22
2022-10-20T19:34:02.203Z,42.13
2022-10-20T19:36:32.368Z,37.05
2022-10-20T19:39:00.786Z,36.33
2022-10-20T19:41:29.151Z,44.95
2022-10-20T19:43:57.494Z,36.15
2022-10-20T19:46:25.529Z,37.40
2022-10-20T19:48:54.833Z,37.33
2022-10-20T19:51:23.173Z,38.28
2022-10-20T19:53:53.698Z,36.95
2022-10-20T19:56:21.658Z,42.22
2022-10-20T19:58:49.623Z,44.50
2022-10-20T20:01:18.214Z,38.55
2022-10-20T20:03:46.546Z,34.65
2022-10-20T20:06:17.976Z,44.78
2022-10-20T20:08:47.414Z,43.40
2022-10-20T20:11:23.853Z,40.53
2022-10-20T20:13:52.882Z,46.40
2022-10-20T20:16:21.587Z,43.72
2022-10-20T20:18:50.660Z,46.80
2022-10-20T20:21:20.168Z,45.22
2022-10-20T20:23:58.749Z,47.83
2022-10-20T20:26:28.197Z,43.88
2022-10-20T20:28:56.327Z,48.05
2022-10-20T20:31:25.701Z,50.03
2022-10-20T20:33:54.441Z,55.72
2022-10-20T20:36:23.923Z,42.15
2022-10-20T20:38:53.814Z,44.22
2022-10-20T20:41:26.110Z,48.40
2022-10-20T20:43:53.970Z,44.10
2022-10-20T20:46:23.847Z,43.80
2022-10-20T20:48:52.579Z,50.75
2022-10-20T20:51:20.636Z,45.13
2022-10-20T20:53:49.874Z,45.10
2022-10-20T20:56:21.783Z,42.50
2022-10-20T20:58:54.948Z,50.40
2022-10-20T21:01:24.689Z,49.35
2022-10-20T21:03:54.618Z,48.10
2022-10-20T21:06:28.764Z,46.38
2022-10-20T21:09:03.386Z,44.40
2022-10-20T21:11:31.318Z,46.95
2022-10-20T21:13:59.929Z,44.70
2022-10-20T21:16:29.536Z,42.47
2022-10-20T21:18:58.983Z,45.42
2022-10-20T21:21:28.808Z,47.65
2022-10-20T21:23:57.784Z,48.95
2022-10-20T21:26:28.189Z,48.53
2022-10-20T21:28:56.085Z,46.35
2022-10-20T21:31:26.113Z,43.97
2022-10-20T21:33:55.647Z,48.35
2022-10-20T21:36:24.450Z,43.67
2022-10-20T21:38:53.318Z,45.78
2022-10-20T21:41:22.783Z,51.40
2022-10-20T21:43:53.665Z,46.65
2022-10-20T21:46:23.752Z,43.45
2022-10-20T21:48:53.366Z,47.03
2022-10-20T21:51:23.359Z,43.03
2022-10-20T21:53:55.179Z,46.55
2022-10-20T21:56:23.037Z,45.40
2022-10-20T21:58:52.781Z,41.42
2022-10-20T22:01:22.690Z,45.42
2022-10-20T22:03:52.197Z,44.38
2022-10-20T22:06:22.344Z,48.45
2022-10-20T22:08:52.108Z,42.92
2022-10-20T22:11:21.780Z,46.58
2022-10-20T22:13:54.441Z,45.20
2022-10-20T22:16:25.020Z,45.75
2022-10-20T22:18:56.277Z,43.00
2022-10-20T22:21:24.164Z,54.83
2022-10-20T22:23:54.542Z,46.28
2022-10-20T22:26:23.081Z,44.50
2022-10-20T22:28:53.480Z,44.00
2022-10-20T22:31:21.382Z,47.85
2022-10-20T22:33:49.244Z,53.40
2022-10-20T22:36:17.168Z,47.88
2022-10-20T22:38:45.071Z,49.10
2022-10-20T22:41:14.394Z,45.75
2022-10-20T22:43:42.547Z,46.60
2022-10-20T22:46:11.795Z,45.15
2022-10-20T22:48:39.812Z,46.40
2022-10-20T22:51:09.266Z,61.88
2022-10-20T22:53:37.549Z,47.55
2022-10-20T22:56:07.597Z,42.58
2022-10-20T22:58:35.849Z,46.28
2022-10-20T23:01:08.032Z,38.50
2022-10-20T23:03:37.375Z,46.97
2022-10-20T23:06:09.259Z,44.97
2022-10-20T23:08:42.008Z,43.25
2022-10-20T23:11:10.796Z,39.40
2022-10-20T23:13:38.915Z,41.08
2022-10-20T23:16:07.559Z,43.38
2022-10-20T23:18:36.967Z,41.38
2022-10-20T23:21:05.108Z,39.20
2022-10-20T23:23:36.415Z,44.38
2022-10-20T23:26:05.151Z,43.90
2022-10-20T23:28:33.339Z,46.75
2022-10-20T23:31:12.207Z,42.28
2022-10-20T23:33:43.166Z,45.03
2022-10-20T23:36:11.955Z,43.80
2022-10-20T23:38:40.453Z,44.10
2022-10-20T23:41:08.484Z,46.03
2022-10-20T23:46:10.056Z,45.38
2022-10-20T23:48:37.996Z,44.25
2022-10-20T23:51:08.481Z,48.50
2022-10-20T23:53:36.813Z,44.83
2022-10-20T23:56:05.343Z,44.28
2022-10-20T23:58:33.274Z,43.47
